sensor_id;sensor_type;location;lat;lon;timestamp;P1;durP1;ratioP1;P2;durP2;ratioP2
4460;SDS011;2243;48.812;9.232;2022-08-21T00:00:44;5.20;;;4.70;;
4460;SDS011;2243;48.812;9.232;2022-08-21T00:03:16;7.23;;;5.40;;
4460;SDS011;2243;48.812;9.232;2022-08-21T00:05:48;5.73;;;5.20;;
4460;SDS011;2243;48.812;9.232;2022-08-21T00:08:20;6.90;;;4.60;;
4460;SDS011;2243;48.812;9.232;2022-08-21T00:10:51;7.23;;;4.97;;
4460;SDS011;2243;48.812;9.232;2022-08-21T00:13:22;8.40;;;4.70;;
4460;SDS011;2243;48.812;9.232;2022-08-21T00:15:53;5.03;;;4.53;;
4460;SDS011;2243;48.812;9.232;2022-08-21T00:18:25;4.53;;;4.20;;
4460;SDS011;2243;48.812;9.232;2022-08-21T00:20:56;4.67;;;4.33;;
4460;SDS011;2243;48.812;9.232;2022-08-21T00:23:27;8.70;;;4.83;;
4460;SDS011;2243;48.812;9.232;2022-08-21T00:25:58;4.83;;;4.30;;
4460;SDS011;2243;48.812;9.232;2022-08-21T00:28:29;5.30;;;4.90;;
4460;SDS011;2243;48.812;9.232;2022-08-21T00:31:01;7.47;;;5.20;;
4460;SDS011;2243;48.812;9.232;2022-08-21T00:33:34;5.20;;;4.70;;
4460;SDS011;2243;48.812;9.232;2022-08-21T00:36:05;7.57;;;4.17;;
4460;SDS011;2243;48.812;9.232;2022-08-21T00:38:36;5.03;;;4.07;;
4460;SDS011;2243;48.812;9.232;2022-08-21T00:41:08;6.80;;;4.23;;
4460;SDS011;2243;48.812;9.232;2022-08-21T00:44:01;8.73;;;4.97;;
4460;SDS011;2243;48.812;9.232;2022-08-21T00:46:34;5.53;;;4.93;;
4460;SDS011;2243;48.812;9.232;2022-08-21T00:49:06;5.47;;;4.37;;
4460;SDS011;2243;48.812;9.232;2022-08-21T00:51:40;5.80;;;3.97;;
4460;SDS011;2243;48.812;9.232;2022-08-21T00:54:20;10.60;;;5.80;;
4460;SDS011;2243;48.812;9.232;2022-08-21T00:56:57;7.57;;;4.90;;
4460;SDS011;2243;48.812;9.232;2022-08-21T00:59:35;4.67;;;4.30;;
4460;SDS011;2243;48.812;9.232;2022-08-21T01:02:09;13.53;;;4.33;;
4460;SDS011;2243;48.812;9.232;2022-08-21T01:04:40;4.60;;;4.23;;
4460;SDS011;2243;48.812;9.232;2022-08-21T01:07:15;10.03;;;4.67;;
4460;SDS011;2243;48.812;9.232;2022-08-21T01:09:49;4.60;;;4.30;;
4460;SDS011;2243;48.812;9.232;2022-08-21T01:12:19;4.20;;;3.90;;
4460;SDS011;2243;48.812;9.232;2022-08-21T01:14:51;8.13;;;3.90;;
4460;SDS011;2243;48.812;9.232;2022-08-21T01:17:22;5.03;;;4.63;;
4460;SDS011;2243;48.812;9.232;2022-08-21T01:19:57;4.30;;;3.90;;
4460;SDS011;2243;48.812;9.232;2022-08-21T01:22:29;4.57;;;4.00;;
4460;SDS011;2243;48.812;9.232;2022-08-21T01:25:00;3.73;;;3.53;;
4460;SDS011;2243;48.812;9.232;2022-08-21T01:27:33;6.43;;;4.03;;
4460;SDS011;2243;48.812;9.232;2022-08-21T01:30:16;4.80;;;4.20;;
4460;SDS011;2243;48.812;9.232;2022-08-21T01:32:52;4.30;;;3.97;;
4460;SDS011;2243;48.812;9.232;2022-08-21T01:35:26;8.20;;;4.20;;
4460;SDS011;2243;48.812;9.232;2022-08-21T01:37:57;7.30;;;4.47;;
4460;SDS011;2243;48.812;9.232;2022-08-21T01:40:28;3.67;;;3.47;;
4460;SDS011;2243;48.812;9.232;2022-08-21T01:42:59;5.03;;;3.87;;
4460;SDS011;2243;48.812;9.232;2022-08-21T01:45:30;4.13;;;3.73;;
4460;SDS011;2243;48.812;9.232;2022-08-21T01:48:01;9.70;;;4.53;;
4460;SDS011;2243;48.812;9.232;2022-08-21T01:50:32;4.93;;;4.00;;
4460;SDS011;2243;48.812;9.232;2022-08-21T01:53:04;4.50;;;4.20;;
4460;SDS011;2243;48.812;9.232;2022-08-21T01:55:35;3.40;;;3.10;;
4460;SDS011;2243;48.812;9.232;2022-08-21T01:58:06;8.33;;;4.03;;
4460;SDS011;2243;48.812;9.232;2022-08-21T02:00:37;5.10;;;4.60;;
4460;SDS011;2243;48.812;9.232;2022-08-21T02:03:08;4.40;;;3.60;;
4460;SDS011;2243;48.812;9.232;2022-08-21T02:05:39;4.30;;;4.00;;
4460;SDS011;2243;48.812;9.232;2022-08-21T02:08:10;4.93;;;4.50;;
4460;SDS011;2243;48.812;9.232;2022-08-21T02:10:41;8.20;;;4.60;;
4460;SDS011;2243;48.812;9.232;2022-08-21T02:13:18;6.13;;;4.40;;
4460;SDS011;2243;48.812;9.232;2022-08-21T02:15:49;4.60;;;4.30;;
4460;SDS011;2243;48.812;9.232;2022-08-21T02:18:20;5.27;;;4.77;;
4460;SDS011;2243;48.812;9.232;2022-08-21T02:20:52;7.07;;;5.07;;
4460;SDS011;2243;48.812;9.232;2022-08-21T02:23:26;4.07;;;3.77;;
4460;SDS011;2243;48.812;9.232;2022-08-21T02:25:57;4.97;;;4.30;;
4460;SDS011;2243;48.812;9.232;2022-08-21T02:28:30;4.50;;;4.20;;
4460;SDS011;2243;48.812;9.232;2022-08-21T02:31:01;6.60;;;4.53;;
4460;SDS011;2243;48.812;9.232;2022-08-21T02:33:33;4.90;;;4.20;;
4460;SDS011;2243;48.812;9.232;2022-08-21T02:36:04;5.77;;;4.50;;
4460;SDS011;2243;48.812;9.232;2022-08-21T02:38:38;4.27;;;3.90;;
4460;SDS011;2243;48.812;9.232;2022-08-21T02:41:14;5.53;;;5.00;;
4460;SDS011;2243;48.812;9.232;2022-08-21T02:43:51;6.37;;;4.50;;
4460;SDS011;2243;48.812;9.232;2022-08-21T02:46:22;6.23;;;4.83;;
4460;SDS011;2243;48.812;9.232;2022-08-21T02:48:53;7.30;;;5.00;;
4460;SDS011;2243;48.812;9.232;2022-08-21T02:51:23;8.03;;;4.40;;
4460;SDS011;2243;48.812;9.232;2022-08-21T02:53:55;12.50;;;4.40;;
4460;SDS011;2243;48.812;9.232;2022-08-21T02:56:26;5.03;;;4.53;;
4460;SDS011;2243;48.812;9.232;2022-08-21T02:59:00;6.33;;;4.33;;
4460;SDS011;2243;48.812;9.232;2022-08-21T03:01:31;4.80;;;4.40;;
4460;SDS011;2243;48.812;9.232;2022-08-21T03:04:02;5.40;;;4.73;;
4460;SDS011;2243;48.812;9.232;2022-08-21T03:06:33;8.93;;;3.73;;
4460;SDS011;2243;48.812;9.232;2022-08-21T03:09:04;5.53;;;3.70;;
4460;SDS011;2243;48.812;9.232;2022-08-21T03:11:35;5.13;;;4.40;;
4460;SDS011;2243;48.812;9.232;2022-08-21T03:14:07;6.73;;;4.60;;
4460;SDS011;2243;48.812;9.232;2022-08-21T03:16:38;4.43;;;4.03;;
4460;SDS011;2243;48.812;9.232;2022-08-21T03:19:09;4.63;;;4.20;;
4460;SDS011;2243;48.812;9.232;2022-08-21T03:21:43;5.63;;;4.40;;
4460;SDS011;2243;48.812;9.232;2022-08-21T03:24:14;4.90;;;4.50;;
4460;SDS011;2243;48.812;9.232;2022-08-21T03:26:47;4.80;;;4.50;;
4460;SDS011;2243;48.812;9.232;2022-08-21T03:29:19;5.40;;;4.90;;
4460;SDS011;2243;48.812;9.232;2022-08-21T03:31:50;5.67;;;5.17;;
4460;SDS011;2243;48.812;9.232;2022-08-21T03:34:22;4.47;;;4.07;;
4460;SDS011;2243;48.812;9.232;2022-08-21T03:36:53;5.20;;;4.80;;
4460;SDS011;2243;48.812;9.232;2022-08-21T03:39:24;4.87;;;4.10;;
4460;SDS011;2243;48.812;9.232;2022-08-21T03:41:55;7.10;;;4.40;;
4460;SDS011;2243;48.812;9.232;2022-08-21T03:44:26;5.83;;;4.60;;
4460;SDS011;2243;48.812;9.232;2022-08-21T03:46:59;9.57;;;4.57;;
4460;SDS011;2243;48.812;9.232;2022-08-21T03:49:31;4.97;;;4.57;;
4460;SDS011;2243;48.812;9.232;2022-08-21T03:52:03;4.80;;;4.23;;
4460;SDS011;2243;48.812;9.232;2022-08-21T03:54:35;6.90;;;4.03;;
4460;SDS011;2243;48.812;9.232;2022-08-21T03:57:06;5.07;;;4.43;;
4460;SDS011;2243;48.812;9.232;2022-08-21T03:59:37;5.30;;;4.00;;
4460;SDS011;2243;48.812;9.232;2022-08-21T04:02:09;5.37;;;4.87;;
4460;SDS011;2243;48.812;9.232;2022-08-21T04:04:41;7.30;;;4.93;;
4460;SDS011;2243;48.812;9.232;2022-08-21T04:07:12;4.70;;;4.30;;
4460;SDS011;2243;48.812;9.232;2022-08-21T04:09:42;5.40;;;3.97;;
4460;SDS011;2243;48.812;9.232;2022-08-21T04:12:13;5.73;;;5.27;;
4460;SDS011;2243;48.812;9.232;2022-08-21T04:14:44;5.10;;;4.60;;
4460;SDS011;2243;48.812;9.232;2022-08-21T04:17:15;5.83;;;4.77;;
4460;SDS011;2243;48.812;9.232;2022-08-21T04:19:46;5.00;;;4.60;;
4460;SDS011;2243;48.812;9.232;2022-08-21T04:22:23;6.60;;;4.30;;
4460;SDS011;2243;48.812;9.232;2022-08-21T04:24:53;4.87;;;4.37;;
4460;SDS011;2243;48.812;9.232;2022-08-21T04:27:24;4.47;;;4.00;;
4460;SDS011;2243;48.812;9.232;2022-08-21T04:29:55;5.33;;;4.83;;
4460;SDS011;2243;48.812;9.232;2022-08-21T04:32:26;7.20;;;4.47;;
4460;SDS011;2243;48.812;9.232;2022-08-21T04:35:02;5.40;;;4.80;;
4460;SDS011;2243;48.812;9.232;2022-08-21T04:37:37;4.73;;;4.40;;
4460;SDS011;2243;48.812;9.232;2022-08-21T04:40:12;5.20;;;4.80;;
4460;SDS011;2243;48.812;9.232;2022-08-21T04:42:49;6.33;;;5.20;;
4460;SDS011;2243;48.812;9.232;2022-08-21T04:45:28;5.40;;;4.53;;
4460;SDS011;2243;48.812;9.232;2022-08-21T04:48:07;7.20;;;5.30;;
4460;SDS011;2243;48.812;9.232;2022-08-21T04:53:38;4.67;;;4.27;;
4460;SDS011;2243;48.812;9.232;2022-08-21T04:56:20;5.27;;;4.80;;
4460;SDS011;2243;48.812;9.232;2022-08-21T04:58:55;4.43;;;4.03;;
4460;SDS011;2243;48.812;9.232;2022-08-21T05:01:34;5.30;;;4.90;;
4460;SDS011;2243;48.812;9.232;2022-08-21T05:04:10;6.40;;;3.90;;
4460;SDS011;2243;48.812;9.232;2022-08-21T05:06:45;5.00;;;4.50;;
4460;SDS011;2243;48.812;9.232;2022-08-21T05:09:18;3.93;;;3.63;;
4460;SDS011;2243;48.812;9.232;2022-08-21T05:11:50;5.13;;;4.70;;
4460;SDS011;2243;48.812;9.232;2022-08-21T05:14:22;6.67;;;4.80;;
4460;SDS011;2243;48.812;9.232;2022-08-21T05:16:55;5.37;;;4.97;;
4460;SDS011;2243;48.812;9.232;2022-08-21T05:19:26;9.33;;;5.10;;
4460;SDS011;2243;48.812;9.232;2022-08-21T05:21:57;5.13;;;4.30;;
4460;SDS011;2243;48.812;9.232;2022-08-21T05:24:28;5.50;;;5.00;;
4460;SDS011;2243;48.812;9.232;2022-08-21T05:26:59;5.17;;;4.70;;
4460;SDS011;2243;48.812;9.232;2022-08-21T05:29:33;4.77;;;4.47;;
4460;SDS011;2243;48.812;9.232;2022-08-21T05:32:08;6.83;;;4.90;;
4460;SDS011;2243;48.812;9.232;2022-08-21T05:34:44;6.17;;;4.60;;
4460;SDS011;2243;48.812;9.232;2022-08-21T05:37:15;5.63;;;4.97;;
4460;SDS011;2243;48.812;9.232;2022-08-21T05:39:46;5.10;;;4.57;;
4460;SDS011;2243;48.812;9.232;2022-08-21T05:42:37;5.80;;;4.73;;
4460;SDS011;2243;48.812;9.232;2022-08-21T05:45:08;5.30;;;4.80;;
4460;SDS011;2243;48.812;9.232;2022-08-21T05:47:39;9.07;;;4.23;;
4460;SDS011;2243;48.812;9.232;2022-08-21T05:50:10;4.70;;;4.33;;
4460;SDS011;2243;48.812;9.232;2022-08-21T05:52:41;4.90;;;4.60;;
4460;SDS011;2243;48.812;9.232;2022-08-21T05:55:12;6.10;;;4.43;;
4460;SDS011;2243;48.812;9.232;2022-08-21T05:57:44;5.27;;;4.70;;
4460;SDS011;2243;48.812;9.232;2022-08-21T06:00:15;4.90;;;4.40;;
4460;SDS011;2243;48.812;9.232;2022-08-21T06:02:47;4.33;;;4.00;;
4460;SDS011;2243;48.812;9.232;2022-08-21T06:05:20;4.83;;;4.20;;
4460;SDS011;2243;48.812;9.232;2022-08-21T06:08:06;5.53;;;4.77;;
4460;SDS011;2243;48.812;9.232;2022-08-21T06:10:38;6.17;;;4.57;;
4460;SDS011;2243;48.812;9.232;2022-08-21T06:13:09;4.87;;;4.47;;
4460;SDS011;2243;48.812;9.232;2022-08-21T06:15:41;4.63;;;4.10;;
4460;SDS011;2243;48.812;9.232;2022-08-21T06:18:13;5.37;;;4.97;;
4460;SDS011;2243;48.812;9.232;2022-08-21T06:20:44;5.97;;;4.33;;
4460;SDS011;2243;48.812;9.232;2022-08-21T06:23:15;5.20;;;4.30;;
4460;SDS011;2243;48.812;9.232;2022-08-21T06:25:46;6.20;;;4.60;;
4460;SDS011;2243;48.812;9.232;2022-08-21T06:28:17;6.17;;;4.60;;
4460;SDS011;2243;48.812;9.232;2022-08-21T06:30:49;4.60;;;4.23;;
4460;SDS011;2243;48.812;9.232;2022-08-21T06:33:20;5.03;;;4.57;;
4460;SDS011;2243;48.812;9.232;2022-08-21T06:35:51;5.20;;;4.20;;
4460;SDS011;2243;48.812;9.232;2022-08-21T06:38:22;4.73;;;4.33;;
4460;SDS011;2243;48.812;9.232;2022-08-21T06:40:53;6.23;;;4.30;;
4460;SDS011;2243;48.812;9.232;2022-08-21T06:43:24;9.97;;;4.20;;
4460;SDS011;2243;48.812;9.232;2022-08-21T06:46:09;5.47;;;4.43;;
4460;SDS011;2243;48.812;9.232;2022-08-21T06:48:40;4.57;;;4.17;;
4460;SDS011;2243;48.812;9.232;2022-08-21T06:51:11;5.10;;;4.70;;
4460;SDS011;2243;48.812;9.232;2022-08-21T06:53:43;3.77;;;3.47;;
4460;SDS011;2243;48.812;9.232;2022-08-21T06:56:14;5.47;;;4.37;;
4460;SDS011;2243;48.812;9.232;2022-08-21T06:58:45;5.93;;;4.60;;
4460;SDS011;2243;48.812;9.232;2022-08-21T07:01:16;6.20;;;4.50;;
4460;SDS011;2243;48.812;9.232;2022-08-21T07:03:55;4.60;;;4.20;;
4460;SDS011;2243;48.812;9.232;2022-08-21T07:06:26;4.40;;;4.10;;
4460;SDS011;2243;48.812;9.232;2022-08-21T07:08:58;13.60;;;4.60;;
4460;SDS011;2243;48.812;9.232;2022-08-21T07:11:29;4.60;;;4.20;;
4460;SDS011;2243;48.812;9.232;2022-08-21T07:14:06;4.63;;;3.73;;
4460;SDS011;2243;48.812;9.232;2022-08-21T07:16:37;4.60;;;4.20;;
4460;SDS011;2243;48.812;9.232;2022-08-21T07:19:11;4.70;;;3.80;;
4460;SDS011;2243;48.812;9.232;2022-08-21T07:21:42;3.87;;;3.57;;
4460;SDS011;2243;48.812;9.232;2022-08-21T07:24:13;3.50;;;3.30;;
4460;SDS011;2243;48.812;9.232;2022-08-21T07:26:44;4.07;;;3.70;;
4460;SDS011;2243;48.812;9.232;2022-08-21T07:29:15;8.50;;;3.87;;
4460;SDS011;2243;48.812;9.232;2022-08-21T07:31:47;6.60;;;4.27;;
4460;SDS011;2243;48.812;9.232;2022-08-21T07:34:19;3.83;;;3.40;;
4460;SDS011;2243;48.812;9.232;2022-08-21T07:36:50;10.50;;;4.23;;
4460;SDS011;2243;48.812;9.232;2022-08-21T07:39:22;4.10;;;3.53;;
4460;SDS011;2243;48.812;9.232;2022-08-21T07:41:53;7.63;;;5.03;;
4460;SDS011;2243;48.812;9.232;2022-08-21T07:44:24;4.10;;;3.33;;
4460;SDS011;2243;48.812;9.232;2022-08-21T07:46:57;5.37;;;4.70;;
4460;SDS011;2243;48.812;9.232;2022-08-21T07:49:28;8.10;;;4.97;;
4460;SDS011;2243;48.812;9.232;2022-08-21T07:51:59;6.83;;;3.90;;
4460;SDS011;2243;48.812;9.232;2022-08-21T07:54:31;4.83;;;3.87;;
4460;SDS011;2243;48.812;9.232;2022-08-21T07:57:03;5.87;;;4.43;;
4460;SDS011;2243;48.812;9.232;2022-08-21T07:59:35;6.00;;;4.70;;
4460;SDS011;2243;48.812;9.232;2022-08-21T08:02:06;3.83;;;2.77;;
4460;SDS011;2243;48.812;9.232;2022-08-21T08:04:37;3.20;;;2.90;;
4460;SDS011;2243;48.812;9.232;2022-08-21T08:07:20;4.20;;;3.83;;
4460;SDS011;2243;48.812;9.232;2022-08-21T08:09:51;5.17;;;4.13;;
4460;SDS011;2243;48.812;9.232;2022-08-21T08:12:22;6.40;;;4.60;;
4460;SDS011;2243;48.812;9.232;2022-08-21T08:14:53;11.73;;;4.80;;
4460;SDS011;2243;48.812;9.232;2022-08-21T08:17:24;7.03;;;5.27;;
4460;SDS011;2243;48.812;9.232;2022-08-21T08:19:55;7.93;;;4.57;;
4460;SDS011;2243;48.812;9.232;2022-08-21T08:22:27;6.40;;;5.00;;
4460;SDS011;2243;48.812;9.232;2022-08-21T08:24:58;8.33;;;4.83;;
4460;SDS011;2243;48.812;9.232;2022-08-21T08:27:29;8.20;;;4.67;;
4460;SDS011;2243;48.812;9.232;2022-08-21T08:30:01;5.50;;;4.70;;
4460;SDS011;2243;48.812;9.232;2022-08-21T08:32:33;4.63;;;4.20;;
4460;SDS011;2243;48.812;9.232;2022-08-21T08:35:07;7.43;;;4.50;;
4460;SDS011;2243;48.812;9.232;2022-08-21T08:37:39;7.60;;;4.60;;
4460;SDS011;2243;48.812;9.232;2022-08-21T08:40:13;8.40;;;5.20;;
4460;SDS011;2243;48.812;9.232;2022-08-21T08:43:12;6.43;;;4.93;;
4460;SDS011;2243;48.812;9.232;2022-08-21T08:45:45;4.80;;;4.30;;
4460;SDS011;2243;48.812;9.232;2022-08-21T08:57:15;4.10;;;3.67;;
4460;SDS011;2243;48.812;9.232;2022-08-21T08:59:50;5.23;;;4.73;;
4460;SDS011;2243;48.812;9.232;2022-08-21T09:02:26;5.67;;;3.70;;
4460;SDS011;2243;48.812;9.232;2022-08-21T09:05:00;6.50;;;4.33;;
4460;SDS011;2243;48.812;9.232;2022-08-21T09:07:37;6.37;;;4.73;;
4460;SDS011;2243;48.812;9.232;2022-08-21T09:10:38;5.57;;;4.53;;
4460;SDS011;2243;48.812;9.232;2022-08-21T09:13:24;5.30;;;3.93;;
4460;SDS011;2243;48.812;9.232;2022-08-21T09:16:40;6.40;;;4.10;;
4460;SDS011;2243;48.812;9.232;2022-08-21T09:25:31;5.33;;;4.40;;
4460;SDS011;2243;48.812;9.232;2022-08-21T09:28:16;5.17;;;3.87;;
4460;SDS011;2243;48.812;9.232;2022-08-21T09:30:47;6.77;;;4.20;;
4460;SDS011;2243;48.812;9.232;2022-08-21T09:33:19;8.60;;;4.43;;
4460;SDS011;2243;48.812;9.232;2022-08-21T09:35:51;4.97;;;4.47;;
4460;SDS011;2243;48.812;9.232;2022-08-21T09:38:29;4.80;;;4.10;;
4460;SDS011;2243;48.812;9.232;2022-08-21T09:41:05;8.43;;;4.53;;
4460;SDS011;2243;48.812;9.232;2022-08-21T09:43:40;7.23;;;4.20;;
4460;SDS011;2243;48.812;9.232;2022-08-21T09:46:23;4.83;;;3.80;;
4460;SDS011;2243;48.812;9.232;2022-08-21T09:48:57;7.50;;;4.47;;
4460;SDS011;2243;48.812;9.232;2022-08-21T09:51:32;14.00;;;4.27;;
4460;SDS011;2243;48.812;9.232;2022-08-21T09:56:52;12.37;;;4.83;;
4460;SDS011;2243;48.812;9.232;2022-08-21T09:59:47;7.63;;;4.10;;
4460;SDS011;2243;48.812;9.232;2022-08-21T10:05:03;5.23;;;3.50;;
4460;SDS011;2243;48.812;9.232;2022-08-21T10:07:47;4.13;;;3.17;;
4460;SDS011;2243;48.812;9.232;2022-08-21T10:10:20;5.93;;;3.67;;
4460;SDS011;2243;48.812;9.232;2022-08-21T10:22:32;6.90;;;3.60;;
4460;SDS011;2243;48.812;9.232;2022-08-21T10:25:42;6.17;;;4.03;;
4460;SDS011;2243;48.812;9.232;2022-08-21T10:29:18;3.33;;;3.03;;
4460;SDS011;2243;48.812;9.232;2022-08-21T10:40:11;9.40;;;3.43;;
4460;SDS011;2243;48.812;9.232;2022-08-21T10:48:34;3.70;;;3.37;;
4460;SDS011;2243;48.812;9.232;2022-08-21T10:54:51;6.30;;;3.37;;
4460;SDS011;2243;48.812;9.232;2022-08-21T10:57:29;4.00;;;3.70;;
4460;SDS011;2243;48.812;9.232;2022-08-21T11:00:29;8.97;;;3.73;;
4460;SDS011;2243;48.812;9.232;2022-08-21T11:06:09;9.40;;;3.60;;
4460;SDS011;2243;48.812;9.232;2022-08-21T11:08:48;7.57;;;3.80;;
4460;SDS011;2243;48.812;9.232;2022-08-21T11:11:36;6.90;;;3.40;;
4460;SDS011;2243;48.812;9.232;2022-08-21T11:14:36;3.90;;;3.57;;
4460;SDS011;2243;48.812;9.232;2022-08-21T11:17:22;3.77;;;3.47;;
4460;SDS011;2243;48.812;9.232;2022-08-21T11:20:05;6.07;;;3.10;;
4460;SDS011;2243;48.812;9.232;2022-08-21T11:22:46;4.83;;;3.20;;
4460;SDS011;2243;48.812;9.232;2022-08-21T11:25:44;4.97;;;2.93;;
4460;SDS011;2243;48.812;9.232;2022-08-21T11:29:09;6.90;;;4.03;;
4460;SDS011;2243;48.812;9.232;2022-08-21T11:31:32;2.60;;;2.40;;
4460;SDS011;2243;48.812;9.232;2022-08-21T11:40:41;9.40;;;3.20;;
4460;SDS011;2243;48.812;9.232;2022-08-21T11:49:23;4.57;;;2.93;;
4460;SDS011;2243;48.812;9.232;2022-08-21T11:52:20;8.80;;;3.60;;
4460;SDS011;2243;48.812;9.232;2022-08-21T11:58:23;3.50;;;3.20;;
4460;SDS011;2243;48.812;9.232;2022-08-21T12:01:21;8.63;;;3.50;;
4460;SDS011;2243;48.812;9.232;2022-08-21T12:04:01;3.07;;;2.77;;
4460;SDS011;2243;48.812;9.232;2022-08-21T12:06:38;4.40;;;3.20;;
4460;SDS011;2243;48.812;9.232;2022-08-21T12:14:43;6.50;;;3.33;;
4460;SDS011;2243;48.812;9.232;2022-08-21T12:17:20;2.97;;;2.77;;
4460;SDS011;2243;48.812;9.232;2022-08-21T12:19:58;4.53;;;3.27;;
4460;SDS011;2243;48.812;9.232;2022-08-21T12:22:37;3.10;;;2.90;;
4460;SDS011;2243;48.812;9.232;2022-08-21T12:25:13;5.30;;;3.60;;
4460;SDS011;2243;48.812;9.232;2022-08-21T12:27:52;3.40;;;3.10;;
4460;SDS011;2243;48.812;9.232;2022-08-21T12:30:35;4.93;;;3.63;;
4460;SDS011;2243;48.812;9.232;2022-08-21T12:33:20;4.03;;;3.07;;
4460;SDS011;2243;48.812;9.232;2022-08-21T12:36:13;4.50;;;3.47;;
4460;SDS011;2243;48.812;9.232;2022-08-21T12:38:54;3.53;;;3.20;;
4460;SDS011;2243;48.812;9.232;2022-08-21T12:41:31;7.40;;;3.70;;
4460;SDS011;2243;48.812;9.232;2022-08-21T12:44:36;6.23;;;3.30;;
4460;SDS011;2243;48.812;9.232;2022-08-21T12:47:21;5.47;;;2.90;;
4460;SDS011;2243;48.812;9.232;2022-08-21T12:50:08;6.90;;;3.10;;
4460;SDS011;2243;48.812;9.232;2022-08-21T12:55:53;6.73;;;3.50;;
4460;SDS011;2243;48.812;9.232;2022-08-21T12:58:30;4.93;;;3.30;;
4460;SDS011;2243;48.812;9.232;2022-08-21T13:01:06;3.13;;;2.80;;
4460;SDS011;2243;48.812;9.232;2022-08-21T13:03:56;5.20;;;3.80;;
4460;SDS011;2243;48.812;9.232;2022-08-21T13:06:38;3.47;;;3.07;;
4460;SDS011;2243;48.812;9.232;2022-08-21T13:09:16;4.10;;;3.13;;
4460;SDS011;2243;48.812;9.232;2022-08-21T13:11:52;3.53;;;2.87;;
4460;SDS011;2243;48.812;9.232;2022-08-21T13:14:31;6.70;;;3.20;;
4460;SDS011;2243;48.812;9.232;2022-08-21T13:17:18;4.93;;;2.83;;
4460;SDS011;2243;48.812;9.232;2022-08-21T13:19:56;5.23;;;3.60;;
4460;SDS011;2243;48.812;9.232;2022-08-21T13:22:29;6.00;;;3.13;;
4460;SDS011;2243;48.812;9.232;2022-08-21T13:25:08;3.17;;;2.97;;
4460;SDS011;2243;48.812;9.232;2022-08-21T13:27:45;4.97;;;2.90;;
4460;SDS011;2243;48.812;9.232;2022-08-21T13:30:28;5.67;;;3.23;;
4460;SDS011;2243;48.812;9.232;2022-08-21T13:33:01;5.03;;;3.30;;
4460;SDS011;2243;48.812;9.232;2022-08-21T13:38:21;4.40;;;2.93;;
4460;SDS011;2243;48.812;9.232;2022-08-21T13:40:58;3.20;;;3.00;;
4460;SDS011;2243;48.812;9.232;2022-08-21T13:43:43;4.10;;;3.60;;
4460;SDS011;2243;48.812;9.232;2022-08-21T13:46:19;4.00;;;2.90;;
4460;SDS011;2243;48.812;9.232;2022-08-21T13:48:54;7.00;;;3.33;;
4460;SDS011;2243;48.812;9.232;2022-08-21T13:51:26;3.47;;;3.17;;
4460;SDS011;2243;48.812;9.232;2022-08-21T13:53:58;3.07;;;2.87;;
4460;SDS011;2243;48.812;9.232;2022-08-21T13:56:30;4.03;;;2.90;;
4460;SDS011;2243;48.812;9.232;2022-08-21T13:59:14;6.63;;;3.03;;
4460;SDS011;2243;48.812;9.232;2022-08-21T14:02:16;2.90;;;2.70;;
4460;SDS011;2243;48.812;9.232;2022-08-21T14:04:55;3.47;;;3.10;;
4460;SDS011;2243;48.812;9.232;2022-08-21T14:07:30;3.63;;;3.30;;
4460;SDS011;2243;48.812;9.232;2022-08-21T14:12:51;5.67;;;3.30;;
4460;SDS011;2243;48.812;9.232;2022-08-21T14:15:25;3.00;;;2.70;;
4460;SDS011;2243;48.812;9.232;2022-08-21T14:18:16;5.30;;;2.80;;
4460;SDS011;2243;48.812;9.232;2022-08-21T14:20:50;3.03;;;2.80;;
4460;SDS011;2243;48.812;9.232;2022-08-21T14:23:26;3.20;;;3.00;;
4460;SDS011;2243;48.812;9.232;2022-08-21T14:26:02;6.83;;;3.10;;
4460;SDS011;2243;48.812;9.232;2022-08-21T14:28:39;4.40;;;3.00;;
4460;SDS011;2243;48.812;9.232;2022-08-21T14:31:13;4.03;;;2.67;;
4460;SDS011;2243;48.812;9.232;2022-08-21T14:33:48;5.73;;;2.60;;
4460;SDS011;2243;48.812;9.232;2022-08-21T14:36:19;5.10;;;2.87;;
4460;SDS011;2243;48.812;9.232;2022-08-21T14:38:50;4.93;;;3.30;;
4460;SDS011;2243;48.812;9.232;2022-08-21T14:41:23;3.83;;;3.00;;
4460;SDS011;2243;48.812;9.232;2022-08-21T14:43:57;5.50;;;3.17;;
4460;SDS011;2243;48.812;9.232;2022-08-21T14:46:38;4.07;;;2.77;;
4460;SDS011;2243;48.812;9.232;2022-08-21T14:49:26;3.30;;;3.00;;
4460;SDS011;2243;48.812;9.232;2022-08-21T14:51:58;3.00;;;2.80;;
4460;SDS011;2243;48.812;9.232;2022-08-21T14:54:30;3.73;;;3.43;;
4460;SDS011;2243;48.812;9.232;2022-08-21T14:57:05;5.97;;;2.53;;
4460;SDS011;2243;48.812;9.232;2022-08-21T14:59:39;6.03;;;3.30;;
4460;SDS011;2243;48.812;9.232;2022-08-21T15:02:10;3.30;;;2.97;;
4460;SDS011;2243;48.812;9.232;2022-08-21T15:04:41;3.17;;;2.63;;
4460;SDS011;2243;48.812;9.232;2022-08-21T15:07:15;3.73;;;2.43;;
4460;SDS011;2243;48.812;9.232;2022-08-21T15:09:47;4.73;;;3.03;;
4460;SDS011;2243;48.812;9.232;2022-08-21T15:12:18;2.90;;;2.70;;
4460;SDS011;2243;48.812;9.232;2022-08-21T15:14:50;3.17;;;2.67;;
4460;SDS011;2243;48.812;9.232;2022-08-21T15:17:22;4.10;;;2.80;;
4460;SDS011;2243;48.812;9.232;2022-08-21T15:19:53;2.93;;;2.27;;
4460;SDS011;2243;48.812;9.232;2022-08-21T15:22:24;2.60;;;2.40;;
4460;SDS011;2243;48.812;9.232;2022-08-21T15:24:57;2.93;;;2.77;;
4460;SDS011;2243;48.812;9.232;2022-08-21T15:27:28;2.63;;;2.13;;
4460;SDS011;2243;48.812;9.232;2022-08-21T15:30:01;3.03;;;2.67;;
4460;SDS011;2243;48.812;9.232;2022-08-21T15:32:34;3.30;;;2.40;;
4460;SDS011;2243;48.812;9.232;2022-08-21T15:35:05;3.23;;;2.80;;
4460;SDS011;2243;48.812;9.232;2022-08-21T15:37:37;3.20;;;2.20;;
4460;SDS011;2243;48.812;9.232;2022-08-21T15:40:08;4.50;;;2.57;;
4460;SDS011;2243;48.812;9.232;2022-08-21T15:42:41;3.63;;;2.27;;
4460;SDS011;2243;48.812;9.232;2022-08-21T15:45:14;8.97;;;2.90;;
4460;SDS011;2243;48.812;9.232;2022-08-21T15:47:45;4.03;;;2.40;;
4460;SDS011;2243;48.812;9.232;2022-08-21T15:50:19;2.83;;;2.57;;
4460;SDS011;2243;48.812;9.232;2022-08-21T15:52:51;3.43;;;2.60;;
4460;SDS011;2243;48.812;9.232;2022-08-21T15:55:24;4.70;;;2.70;;
4460;SDS011;2243;48.812;9.232;2022-08-21T15:57:55;3.03;;;2.70;;
4460;SDS011;2243;48.812;9.232;2022-08-21T16:00:30;3.43;;;2.50;;
4460;SDS011;2243;48.812;9.232;2022-08-21T16:03:05;7.47;;;2.60;;
4460;SDS011;2243;48.812;9.232;2022-08-21T16:05:37;3.30;;;2.70;;
4460;SDS011;2243;48.812;9.232;2022-08-21T16:08:08;3.03;;;2.83;;
4460;SDS011;2243;48.812;9.232;2022-08-21T16:10:40;3.07;;;2.80;;
4460;SDS011;2243;48.812;9.232;2022-08-21T16:13:17;2.60;;;2.40;;
4460;SDS011;2243;48.812;9.232;2022-08-21T16:15:55;3.40;;;2.50;;
4460;SDS011;2243;48.812;9.232;2022-08-21T16:18:26;6.23;;;2.80;;
4460;SDS011;2243;48.812;9.232;2022-08-21T16:20:58;5.90;;;2.90;;
4460;SDS011;2243;48.812;9.232;2022-08-21T16:23:29;4.50;;;2.77;;
4460;SDS011;2243;48.812;9.232;2022-08-21T16:26:04;4.10;;;2.60;;
4460;SDS011;2243;48.812;9.232;2022-08-21T16:28:40;2.50;;;2.23;;
4460;SDS011;2243;48.812;9.232;2022-08-21T16:31:13;4.00;;;2.53;;
4460;SDS011;2243;48.812;9.232;2022-08-21T16:33:49;4.67;;;2.40;;
4460;SDS011;2243;48.812;9.232;2022-08-21T16:36:27;2.67;;;2.57;;
4460;SDS011;2243;48.812;9.232;2022-08-21T16:38:58;5.80;;;2.37;;
4460;SDS011;2243;48.812;9.232;2022-08-21T16:41:32;4.00;;;2.43;;
4460;SDS011;2243;48.812;9.232;2022-08-21T16:44:05;2.40;;;2.20;;
4460;SDS011;2243;48.812;9.232;2022-08-21T16:46:40;2.40;;;2.20;;
4460;SDS011;2243;48.812;9.232;2022-08-21T16:49:12;2.97;;;2.77;;
4460;SDS011;2243;48.812;9.232;2022-08-21T16:51:43;3.70;;;2.20;;
4460;SDS011;2243;48.812;9.232;2022-08-21T16:54:15;2.50;;;2.33;;
4460;SDS011;2243;48.812;9.232;2022-08-21T16:56:46;2.83;;;2.63;;
4460;SDS011;2243;48.812;9.232;2022-08-21T16:59:17;2.50;;;2.30;;
4460;SDS011;2243;48.812;9.232;2022-08-21T17:01:49;4.17;;;2.57;;
4460;SDS011;2243;48.812;9.232;2022-08-21T17:04:23;6.70;;;2.37;;
4460;SDS011;2243;48.812;9.232;2022-08-21T17:06:57;3.17;;;2.77;;
4460;SDS011;2243;48.812;9.232;2022-08-21T17:09:28;3.50;;;3.13;;
4460;SDS011;2243;48.812;9.232;2022-08-21T17:11:59;3.20;;;2.73;;
4460;SDS011;2243;48.812;9.232;2022-08-21T17:14:30;2.53;;;2.30;;
4460;SDS011;2243;48.812;9.232;2022-08-21T17:17:02;4.10;;;2.87;;
4460;SDS011;2243;48.812;9.232;2022-08-21T17:19:37;3.03;;;2.30;;
4460;SDS011;2243;48.812;9.232;2022-08-21T17:22:08;2.90;;;2.63;;
4460;SDS011;2243;48.812;9.232;2022-08-21T17:24:40;2.97;;;2.77;;
4460;SDS011;2243;48.812;9.232;2022-08-21T17:27:12;3.10;;;2.87;;